sensor_id;sensor_type;location;lat;lon;timestamp;temperature;humidity
67529;DHT22;54366;51.980;5.856;2024-02-14T00:01:57;9.00;88.80
67529;DHT22;54366;51.980;5.856;2024-02-14T00:04:24;9.00;88.70
67529;DHT22;54366;51.980;5.856;2024-02-14T00:06:50;9.00;89.70
67529;DHT22;54366;51.980;5.856;2024-02-14T00:09:17;9.00;89.20
67529;DHT22;54366;51.980;5.856;2024-02-14T00:11:43;9.00;89.20
67529;DHT22;54366;51.980;5.856;2024-02-14T00:14:10;9.00;89.40
67529;DHT22;54366;51.980;5.856;2024-02-14T00:16:36;9.00;89.50
67529;DHT22;54366;51.980;5.856;2024-02-14T00:19:05;9.00;89.40
67529;DHT22;54366;51.980;5.856;2024-02-14T00:21:31;9.00;89.30
67529;DHT22;54366;51.980;5.856;2024-02-14T00:23:57;9.10;89.30
67529;DHT22;54366;51.980;5.856;2024-02-14T00:26:24;9.10;89.50
67529;DHT22;54366;51.980;5.856;2024-02-14T00:28:50;9.10;89.60
67529;DHT22;54366;51.980;5.856;2024-02-14T00:31:17;9.10;89.70
67529;DHT22;54366;51.980;5.856;2024-02-14T00:33:43;9.10;89.90
67529;DHT22;54366;51.980;5.856;2024-02-14T00:36:11;9.00;89.80
67529;DHT22;54366;51.980;5.856;2024-02-14T00:38:38;9.10;90.00
67529;DHT22;54366;51.980;5.856;2024-02-14T00:41:04;9.10;90.10
67529;DHT22;54366;51.980;5.856;2024-02-14T00:43:30;9.10;90.10
67529;DHT22;54366;51.980;5.856;2024-02-14T00:45:57;9.10;90.10
67529;DHT22;54366;51.980;5.856;2024-02-14T00:48:23;9.10;90.20
67529;DHT22;54366;51.980;5.856;2024-02-14T00:50:49;9.10;90.20
67529;DHT22;54366;51.980;5.856;2024-02-14T00:53:18;9.10;90.20
67529;DHT22;54366;51.980;5.856;2024-02-14T00:55:45;9.10;90.20
67529;DHT22;54366;51.980;5.856;2024-02-14T00:58:11;9.10;90.20
67529;DHT22;54366;51.980;5.856;2024-02-14T01:00:37;9.20;90.30
67529;DHT22;54366;51.980;5.856;2024-02-14T01:03:04;9.20;90.20
67529;DHT22;54366;51.980;5.856;2024-02-14T01:05:30;9.20;90.10
67529;DHT22;54366;51.980;5.856;2024-02-14T01:07:57;9.20;90.30
67529;DHT22;54366;51.980;5.856;2024-02-14T01:10:23;9.20;90.20
67529;DHT22;54366;51.980;5.856;2024-02-14T01:12:49;9.20;90.30
67529;DHT22;54366;51.980;5.856;2024-02-14T01:15:16;9.20;90.20
67529;DHT22;54366;51.980;5.856;2024-02-14T01:17:42;9.30;90.40
67529;DHT22;54366;51.980;5.856;2024-02-14T01:20:09;9.20;90.50
67529;DHT22;54366;51.980;5.856;2024-02-14T01:22:35;9.30;90.40
67529;DHT22;54366;51.980;5.856;2024-02-14T01:25:03;9.30;90.60
67529;DHT22;54366;51.980;5.856;2024-02-14T01:27:29;9.30;90.40
67529;DHT22;54366;51.980;5.856;2024-02-14T01:29:55;9.30;90.40
67529;DHT22;54366;51.980;5.856;2024-02-14T01:32:23;9.40;90.40
67529;DHT22;54366;51.980;5.856;2024-02-14T01:34:49;9.40;90.50
67529;DHT22;54366;51.980;5.856;2024-02-14T01:37:16;9.40;90.40
67529;DHT22;54366;51.980;5.856;2024-02-14T01:39:43;9.40;90.40
67529;DHT22;54366;51.980;5.856;2024-02-14T01:42:09;9.40;90.50
67529;DHT22;54366;51.980;5.856;2024-02-14T01:44:35;9.50;90.50
67529;DHT22;54366;51.980;5.856;2024-02-14T01:47:03;9.50;90.50
67529;DHT22;54366;51.980;5.856;2024-02-14T01:49:29;9.50;90.40
67529;DHT22;54366;51.980;5.856;2024-02-14T01:52:01;9.50;90.50
67529;DHT22;54366;51.980;5.856;2024-02-14T01:54:27;9.50;90.50
67529;DHT22;54366;51.980;5.856;2024-02-14T01:56:55;9.60;90.50
67529;DHT22;54366;51.980;5.856;2024-02-14T01:59:23;9.50;90.40
67529;DHT22;54366;51.980;5.856;2024-02-14T02:01:49;9.60;90.50
67529;DHT22;54366;51.980;5.856;2024-02-14T02:04:18;9.60;90.50
67529;DHT22;54366;51.980;5.856;2024-02-14T02:06:44;9.60;90.60
67529;DHT22;54366;51.980;5.856;2024-02-14T02:09:10;9.60;90.60
67529;DHT22;54366;51.980;5.856;2024-02-14T02:12:03;9.70;90.60
67529;DHT22;54366;51.980;5.856;2024-02-14T02:14:33;9.70;90.50
67529;DHT22;54366;51.980;5.856;2024-02-14T02:17:00;9.70;90.70
67529;DHT22;54366;51.980;5.856;2024-02-14T02:19:26;9.70;90.70
67529;DHT22;54366;51.980;5.856;2024-02-14T02:21:52;9.80;90.70
67529;DHT22;54366;51.980;5.856;2024-02-14T02:24:19;9.80;90.70
67529;DHT22;54366;51.980;5.856;2024-02-14T02:26:45;9.80;90.80
67529;DHT22;54366;51.980;5.856;2024-02-14T02:29:12;9.80;90.80
67529;DHT22;54366;51.980;5.856;2024-02-14T02:31:38;9.80;90.70
67529;DHT22;54366;51.980;5.856;2024-02-14T02:34:04;9.90;90.80
67529;DHT22;54366;51.980;5.856;2024-02-14T02:36:30;9.80;90.80
67529;DHT22;54366;51.980;5.856;2024-02-14T02:38:57;9.80;90.80
67529;DHT22;54366;51.980;5.856;2024-02-14T02:41:24;9.90;90.90
67529;DHT22;54366;51.980;5.856;2024-02-14T02:43:50;9.80;90.80
67529;DHT22;54366;51.980;5.856;2024-02-14T02:46:17;9.90;90.90
67529;DHT22;54366;51.980;5.856;2024-02-14T02:48:43;9.90;90.80
67529;DHT22;54366;51.980;5.856;2024-02-14T02:51:09;9.90;90.90
67529;DHT22;54366;51.980;5.856;2024-02-14T02:53:36;9.90;91.00
67529;DHT22;54366;51.980;5.856;2024-02-14T02:56:03;9.90;91.00
67529;DHT22;54366;51.980;5.856;2024-02-14T02:58:30;9.90;91.00
67529;DHT22;54366;51.980;5.856;2024-02-14T03:00:57;9.90;91.00
67529;DHT22;54366;51.980;5.856;2024-02-14T03:03:24;9.90;91.00
67529;DHT22;54366;51.980;5.856;2024-02-14T03:05:54;10.00;91.00
67529;DHT22;54366;51.980;5.856;2024-02-14T03:08:23;9.90;91.00
67529;DHT22;54366;51.980;5.856;2024-02-14T03:10:52;9.90;91.00
67529;DHT22;54366;51.980;5.856;2024-02-14T03:13:18;10.00;90.90
67529;DHT22;54366;51.980;5.856;2024-02-14T03:15:45;10.00;90.90
67529;DHT22;54366;51.980;5.856;2024-02-14T03:18:12;10.00;91.00
67529;DHT22;54366;51.980;5.856;2024-02-14T03:20:39;10.00;91.00
67529;DHT22;54366;51.980;5.856;2024-02-14T03:23:05;10.00;90.90
67529;DHT22;54366;51.980;5.856;2024-02-14T03:25:32;10.00;90.90
67529;DHT22;54366;51.980;5.856;2024-02-14T03:27:58;10.00;91.00
67529;DHT22;54366;51.980;5.856;2024-02-14T03:30:25;10.00;91.00
67529;DHT22;54366;51.980;5.856;2024-02-14T03:32:51;10.10;91.00
67529;DHT22;54366;51.980;5.856;2024-02-14T03:35:18;10.00;90.90
67529;DHT22;54366;51.980;5.856;2024-02-14T03:37:47;10.10;91.00
67529;DHT22;54366;51.980;5.856;2024-02-14T03:40:14;10.00;90.90
67529;DHT22;54366;51.980;5.856;2024-02-14T03:42:41;10.10;90.80
67529;DHT22;54366;51.980;5.856;2024-02-14T03:45:08;10.10;90.90
67529;DHT22;54366;51.980;5.856;2024-02-14T03:47:35;10.10;91.00
67529;DHT22;54366;51.980;5.856;2024-02-14T03:50:01;10.10;91.00
67529;DHT22;54366;51.980;5.856;2024-02-14T03:52:30;10.10;91.00
67529;DHT22;54366;51.980;5.856;2024-02-14T03:54:59;10.10;91.00
67529;DHT22;54366;51.980;5.856;2024-02-14T03:57:26;10.20;91.20
67529;DHT22;54366;51.980;5.856;2024-02-14T03:59:55;10.20;91.10
67529;DHT22;54366;51.980;5.856;2024-02-14T04:02:22;10.20;91.10
67529;DHT22;54366;51.980;5.856;2024-02-14T04:04:52;10.20;91.10
67529;DHT22;54366;51.980;5.856;2024-02-14T04:07:18;10.30;91.10
67529;DHT22;54366;51.980;5.856;2024-02-14T04:09:44;10.30;91.10
67529;DHT22;54366;51.980;5.856;2024-02-14T04:12:11;10.30;91.10
67529;DHT22;54366;51.980;5.856;2024-02-14T04:14:37;10.30;91.10
67529;DHT22;54366;51.980;5.856;2024-02-14T04:17:04;10.30;91.10
67529;DHT22;54366;51.980;5.856;2024-02-14T04:19:33;10.30;91.10
67529;DHT22;54366;51.980;5.856;2024-02-14T04:22:00;10.30;91.10
67529;DHT22;54366;51.980;5.856;2024-02-14T04:24:26;10.40;91.20
67529;DHT22;54366;51.980;5.856;2024-02-14T04:26:55;10.40;91.30
67529;DHT22;54366;51.980;5.856;2024-02-14T04:29:23;10.40;91.30
67529;DHT22;54366;51.980;5.856;2024-02-14T04:31:49;10.40;91.20
67529;DHT22;54366;51.980;5.856;2024-02-14T04:34:15;10.40;91.30
67529;DHT22;54366;51.980;5.856;2024-02-14T04:36:42;10.40;91.20
67529;DHT22;54366;51.980;5.856;2024-02-14T04:39:08;10.40;91.20
67529;DHT22;54366;51.980;5.856;2024-02-14T04:41:35;10.40;91.20
67529;DHT22;54366;51.980;5.856;2024-02-14T04:44:04;10.50;91.30
67529;DHT22;54366;51.980;5.856;2024-02-14T04:46:35;10.50;91.30
67529;DHT22;54366;51.980;5.856;2024-02-14T04:49:02;10.50;91.30
67529;DHT22;54366;51.980;5.856;2024-02-14T04:51:31;10.50;91.40
67529;DHT22;54366;51.980;5.856;2024-02-14T04:53:58;10.50;91.40
67529;DHT22;54366;51.980;5.856;2024-02-14T04:56:26;10.50;91.40
67529;DHT22;54366;51.980;5.856;2024-02-14T04:58:53;10.50;91.30
67529;DHT22;54366;51.980;5.856;2024-02-14T05:01:21;10.50;91.30
67529;DHT22;54366;51.980;5.856;2024-02-14T05:03:48;10.50;91.20
67529;DHT22;54366;51.980;5.856;2024-02-14T05:06:16;10.50;91.20
67529;DHT22;54366;51.980;5.856;2024-02-14T05:08:42;10.50;91.10
67529;DHT22;54366;51.980;5.856;2024-02-14T05:11:08;10.60;91.10
67529;DHT22;54366;51.980;5.856;2024-02-14T05:13:35;10.50;91.10
67529;DHT22;54366;51.980;5.856;2024-02-14T05:16:05;10.60;91.10
67529;DHT22;54366;51.980;5.856;2024-02-14T05:18:31;10.60;91.10
67529;DHT22;54366;51.980;5.856;2024-02-14T05:20:57;10.60;91.10
67529;DHT22;54366;51.980;5.856;2024-02-14T05:23:24;10.60;91.10
67529;DHT22;54366;51.980;5.856;2024-02-14T05:25:50;10.60;91.20
67529;DHT22;54366;51.980;5.856;2024-02-14T05:28:17;10.60;91.20
67529;DHT22;54366;51.980;5.856;2024-02-14T05:30:44;10.60;91.40
67529;DHT22;54366;51.980;5.856;2024-02-14T05:33:11;10.60;91.10
67529;DHT22;54366;51.980;5.856;2024-02-14T05:35:37;10.60;91.20
67529;DHT22;54366;51.980;5.856;2024-02-14T05:38:04;10.70;91.20
67529;DHT22;54366;51.980;5.856;2024-02-14T05:40:34;10.60;91.20
67529;DHT22;54366;51.980;5.856;2024-02-14T05:43:04;10.60;91.20
67529;DHT22;54366;51.980;5.856;2024-02-14T05:45:30;10.70;91.50
67529;DHT22;54366;51.980;5.856;2024-02-14T05:47:56;10.70;91.20
67529;DHT22;54366;51.980;5.856;2024-02-14T05:50:22;10.70;91.10
67529;DHT22;54366;51.980;5.856;2024-02-14T05:52:49;10.60;91.10
67529;DHT22;54366;51.980;5.856;2024-02-14T05:55:15;10.60;91.00
67529;DHT22;54366;51.980;5.856;2024-02-14T05:57:43;10.70;91.00
67529;DHT22;54366;51.980;5.856;2024-02-14T06:00:10;10.70;91.10
67529;DHT22;54366;51.980;5.856;2024-02-14T06:02:39;10.70;91.00
67529;DHT22;54366;51.980;5.856;2024-02-14T06:05:08;10.70;91.00
67529;DHT22;54366;51.980;5.856;2024-02-14T06:07:38;10.70;91.00
67529;DHT22;54366;51.980;5.856;2024-02-14T06:10:05;10.70;91.00
67529;DHT22;54366;51.980;5.856;2024-02-14T06:12:33;10.70;90.90
67529;DHT22;54366;51.980;5.856;2024-02-14T06:15:02;10.70;90.90
67529;DHT22;54366;51.980;5.856;2024-02-14T06:17:29;10.70;91.00
67529;DHT22;54366;51.980;5.856;2024-02-14T06:19:55;10.70;91.00
67529;DHT22;54366;51.980;5.856;2024-02-14T06:22:21;10.70;91.00
67529;DHT22;54366;51.980;5.856;2024-02-14T06:24:48;10.70;91.00
67529;DHT22;54366;51.980;5.856;2024-02-14T06:27:17;10.70;91.00
67529;DHT22;54366;51.980;5.856;2024-02-14T06:29:43;10.70;90.90
67529;DHT22;54366;51.980;5.856;2024-02-14T06:32:12;10.70;91.00
67529;DHT22;54366;51.980;5.856;2024-02-14T06:34:38;10.70;91.00
67529;DHT22;54366;51.980;5.856;2024-02-14T06:37:05;10.70;91.10
67529;DHT22;54366;51.980;5.856;2024-02-14T06:39:31;10.70;91.10
67529;DHT22;54366;51.980;5.856;2024-02-14T06:41:57;10.70;91.10
67529;DHT22;54366;51.980;5.856;2024-02-14T06:44:24;10.70;91.10
67529;DHT22;54366;51.980;5.856;2024-02-14T06:46:50;10.70;91.00
67529;DHT22;54366;51.980;5.856;2024-02-14T06:49:17;10.70;91.00
67529;DHT22;54366;51.980;5.856;2024-02-14T06:51:43;10.70;91.00
67529;DHT22;54366;51.980;5.856;2024-02-14T06:54:11;10.80;91.00
67529;DHT22;54366;51.980;5.856;2024-02-14T06:56:40;10.80;91.00
67529;DHT22;54366;51.980;5.856;2024-02-14T06:59:06;10.80;91.10
67529;DHT22;54366;51.980;5.856;2024-02-14T07:01:33;10.80;91.10
67529;DHT22;54366;51.980;5.856;2024-02-14T07:03:59;10.80;91.20
67529;DHT22;54366;51.980;5.856;2024-02-14T07:06:25;10.80;91.20
67529;DHT22;54366;51.980;5.856;2024-02-14T07:08:52;10.80;91.10
67529;DHT22;54366;51.980;5.856;2024-02-14T07:11:18;10.80;91.20
67529;DHT22;54366;51.980;5.856;2024-02-14T07:13:44;10.80;91.10
67529;DHT22;54366;51.980;5.856;2024-02-14T07:16:11;10.80;91.10
67529;DHT22;54366;51.980;5.856;2024-02-14T07:18:37;10.80;91.00
67529;DHT22;54366;51.980;5.856;2024-02-14T07:21:03;10.80;91.00
67529;DHT22;54366;51.980;5.856;2024-02-14T07:23:32;10.80;91.00
67529;DHT22;54366;51.980;5.856;2024-02-14T07:25:59;10.90;91.00
67529;DHT22;54366;51.980;5.856;2024-02-14T07:28:27;10.90;91.10
67529;DHT22;54366;51.980;5.856;2024-02-14T07:30:53;10.90;91.00
67529;DHT22;54366;51.980;5.856;2024-02-14T07:33:19;10.90;91.10
67529;DHT22;54366;51.980;5.856;2024-02-14T07:35:45;10.90;91.00
67529;DHT22;54366;51.980;5.856;2024-02-14T07:38:13;10.90;91.00
67529;DHT22;54366;51.980;5.856;2024-02-14T07:40:40;10.90;91.10
67529;DHT22;54366;51.980;5.856;2024-02-14T07:43:06;10.90;91.00
67529;DHT22;54366;51.980;5.856;2024-02-14T07:45:33;10.90;91.00
67529;DHT22;54366;51.980;5.856;2024-02-14T07:47:59;10.90;90.90
67529;DHT22;54366;51.980;5.856;2024-02-14T07:50:26;11.00;90.90
67529;DHT22;54366;51.980;5.856;2024-02-14T07:52:54;11.00;90.90
67529;DHT22;54366;51.980;5.856;2024-02-14T07:55:20;11.00;90.90
67529;DHT22;54366;51.980;5.856;2024-02-14T07:57:48;11.00;90.90
67529;DHT22;54366;51.980;5.856;2024-02-14T08:00:14;11.00;90.90
67529;DHT22;54366;51.980;5.856;2024-02-14T08:02:49;11.00;90.90
67529;DHT22;54366;51.980;5.856;2024-02-14T08:05:15;11.00;90.90
67529;DHT22;54366;51.980;5.856;2024-02-14T08:07:41;11.00;90.90
67529;DHT22;54366;51.980;5.856;2024-02-14T08:10:08;11.10;90.90
67529;DHT22;54366;51.980;5.856;2024-02-14T08:12:35;11.10;90.90
67529;DHT22;54366;51.980;5.856;2024-02-14T08:15:01;11.00;90.90
67529;DHT22;54366;51.980;5.856;2024-02-14T08:17:30;11.10;90.90
67529;DHT22;54366;51.980;5.856;2024-02-14T08:19:57;11.10;90.90
67529;DHT22;54366;51.980;5.856;2024-02-14T08:22:23;11.10;91.00
67529;DHT22;54366;51.980;5.856;2024-02-14T08:24:49;11.10;90.90
67529;DHT22;54366;51.980;5.856;2024-02-14T08:27:16;11.10;90.90
67529;DHT22;54366;51.980;5.856;2024-02-14T08:29:42;11.10;90.90
67529;DHT22;54366;51.980;5.856;2024-02-14T08:32:08;11.20;90.90
67529;DHT22;54366;51.980;5.856;2024-02-14T08:34:35;11.20;90.90
67529;DHT22;54366;51.980;5.856;2024-02-14T08:37:01;11.20;90.90
67529;DHT22;54366;51.980;5.856;2024-02-14T08:39:27;11.10;90.90
67529;DHT22;54366;51.980;5.856;2024-02-14T08:41:53;11.20;90.90
67529;DHT22;54366;51.980;5.856;2024-02-14T08:44:20;11.20;91.00
67529;DHT22;54366;51.980;5.856;2024-02-14T08:46:47;11.20;91.00
67529;DHT22;54366;51.980;5.856;2024-02-14T08:49:15;11.10;91.10
67529;DHT22;54366;51.980;5.856;2024-02-14T08:51:41;11.20;91.20
67529;DHT22;54366;51.980;5.856;2024-02-14T08:54:10;11.20;91.20
67529;DHT22;54366;51.980;5.856;2024-02-14T08:56:36;11.20;91.20
67529;DHT22;54366;51.980;5.856;2024-02-14T08:59:03;11.20;91.20
67529;DHT22;54366;51.980;5.856;2024-02-14T09:01:31;11.20;91.30
67529;DHT22;54366;51.980;5.856;2024-02-14T09:03:58;11.20;91.50
67529;DHT22;54366;51.980;5.856;2024-02-14T09:06:25;11.20;91.20
67529;DHT22;54366;51.980;5.856;2024-02-14T09:08:55;11.20;91.20
67529;DHT22;54366;51.980;5.856;2024-02-14T09:11:21;11.20;91.20
67529;DHT22;54366;51.980;5.856;2024-02-14T09:13:48;11.30;91.30
67529;DHT22;54366;51.980;5.856;2024-02-14T09:16:17;11.30;91.60
67529;DHT22;54366;51.980;5.856;2024-02-14T09:18:45;11.30;91.40
67529;DHT22;54366;51.980;5.856;2024-02-14T09:21:12;11.30;91.40
67529;DHT22;54366;51.980;5.856;2024-02-14T09:23:38;11.20;91.30
67529;DHT22;54366;51.980;5.856;2024-02-14T09:26:06;11.40;91.40
67529;DHT22;54366;51.980;5.856;2024-02-14T09:28:33;11.40;91.30
67529;DHT22;54366;51.980;5.856;2024-02-14T09:31:01;11.40;91.30
67529;DHT22;54366;51.980;5.856;2024-02-14T09:33:29;11.40;91.30
67529;DHT22;54366;51.980;5.856;2024-02-14T09:35:56;11.40;91.30
67529;DHT22;54366;51.980;5.856;2024-02-14T09:38:22;11.40;91.30
67529;DHT22;54366;51.980;5.856;2024-02-14T09:40:53;11.40;91.40
67529;DHT22;54366;51.980;5.856;2024-02-14T09:43:38;11.40;91.40
67529;DHT22;54366;51.980;5.856;2024-02-14T09:46:07;11.40;91.40
67529;DHT22;54366;51.980;5.856;2024-02-14T09:48:34;11.50;91.40
67529;DHT22;54366;51.980;5.856;2024-02-14T09:51:02;11.40;91.40
67529;DHT22;54366;51.980;5.856;2024-02-14T09:53:29;11.50;91.50
67529;DHT22;54366;51.980;5.856;2024-02-14T09:55:57;11.50;91.50
67529;DHT22;54366;51.980;5.856;2024-02-14T09:58:23;11.50;91.50
67529;DHT22;54366;51.980;5.856;2024-02-14T10:01:00;11.50;91.50
67529;DHT22;54366;51.980;5.856;2024-02-14T10:03:26;11.50;91.50
67529;DHT22;54366;51.980;5.856;2024-02-14T10:05:52;11.50;91.40
67529;DHT22;54366;51.980;5.856;2024-02-14T10:08:19;11.60;91.50
67529;DHT22;54366;51.980;5.856;2024-02-14T10:10:47;11.60;91.50
67529;DHT22;54366;51.980;5.856;2024-02-14T10:13:13;11.50;91.40
67529;DHT22;54366;51.980;5.856;2024-02-14T10:15:42;11.60;91.40
67529;DHT22;54366;51.980;5.856;2024-02-14T10:18:08;11.60;91.40
67529;DHT22;54366;51.980;5.856;2024-02-14T10:20:35;11.60;91.40
67529;DHT22;54366;51.980;5.856;2024-02-14T10:23:08;11.70;91.50
67529;DHT22;54366;51.980;5.856;2024-02-14T10:25:37;11.70;91.60
67529;DHT22;54366;51.980;5.856;2024-02-14T10:28:05;11.70;91.50
67529;DHT22;54366;51.980;5.856;2024-02-14T10:30:38;11.70;91.60
67529;DHT22;54366;51.980;5.856;2024-02-14T10:33:06;11.70;91.70
67529;DHT22;54366;51.980;5.856;2024-02-14T10:35:35;11.70;91.60
67529;DHT22;54366;51.980;5.856;2024-02-14T10:38:04;11.70;91.70
67529;DHT22;54366;51.980;5.856;2024-02-14T10:40:32;11.70;91.60
67529;DHT22;54366;51.980;5.856;2024-02-14T10:42:59;11.70;91.60
67529;DHT22;54366;51.980;5.856;2024-02-14T10:45:26;11.80;91.60
67529;DHT22;54366;51.980;5.856;2024-02-14T10:47:53;11.80;91.70
67529;DHT22;54366;51.980;5.856;2024-02-14T10:50:21;11.80;91.60
67529;DHT22;54366;51.980;5.856;2024-02-14T10:52:48;11.80;91.60
67529;DHT22;54366;51.980;5.856;2024-02-14T10:55:16;11.90;91.60
67529;DHT22;54366;51.980;5.856;2024-02-14T10:57:43;11.90;91.60
67529;DHT22;54366;51.980;5.856;2024-02-14T11:00:14;11.90;91.60
67529;DHT22;54366;51.980;5.856;2024-02-14T11:02:41;11.90;91.60
67529;DHT22;54366;51.980;5.856;2024-02-14T11:05:12;12.00;91.60
67529;DHT22;54366;51.980;5.856;2024-02-14T11:07:45;12.00;91.60
67529;DHT22;54366;51.980;5.856;2024-02-14T11:10:16;12.00;91.60
67529;DHT22;54366;51.980;5.856;2024-02-14T11:12:43;12.00;91.70
67529;DHT22;54366;51.980;5.856;2024-02-14T11:15:21;12.00;91.70
67529;DHT22;54366;51.980;5.856;2024-02-14T11:17:48;12.00;91.80
67529;DHT22;54366;51.980;5.856;2024-02-14T11:20:35;12.00;91.80
67529;DHT22;54366;51.980;5.856;2024-02-14T11:23:06;12.10;91.80
67529;DHT22;54366;51.980;5.856;2024-02-14T11:25:33;12.10;91.80
67529;DHT22;54366;51.980;5.856;2024-02-14T11:28:25;12.10;91.80
67529;DHT22;54366;51.980;5.856;2024-02-14T11:30:52;12.10;91.80
67529;DHT22;54366;51.980;5.856;2024-02-14T11:33:22;12.20;91.90
67529;DHT22;54366;51.980;5.856;2024-02-14T11:35:51;12.20;91.90
67529;DHT22;54366;51.980;5.856;2024-02-14T11:38:19;12.20;92.00
67529;DHT22;54366;51.980;5.856;2024-02-14T11:40:46;12.20;92.30
67529;DHT22;54366;51.980;5.856;2024-02-14T11:43:19;12.20;92.00
67529;DHT22;54366;51.980;5.856;2024-02-14T11:45:46;12.20;92.00
67529;DHT22;54366;51.980;5.856;2024-02-14T11:48:16;12.20;92.00
67529;DHT22;54366;51.980;5.856;2024-02-14T11:50:44;12.20;92.00
67529;DHT22;54366;51.980;5.856;2024-02-14T11:53:11;12.30;92.10
67529;DHT22;54366;51.980;5.856;2024-02-14T11:55:40;12.30;92.00
67529;DHT22;54366;51.980;5.856;2024-02-14T11:58:11;12.20;92.00
67529;DHT22;54366;51.980;5.856;2024-02-14T12:00:45;12.20;92.00
67529;DHT22;54366;51.980;5.856;2024-02-14T12:03:22;12.30;92.30
67529;DHT22;54366;51.980;5.856;2024-02-14T12:05:53;12.30;92.10
67529;DHT22;54366;51.980;5.856;2024-02-14T12:08:20;12.30;92.00
67529;DHT22;54366;51.980;5.856;2024-02-14T12:10:47;12.20;92.00
67529;DHT22;54366;51.980;5.856;2024-02-14T12:13:17;12.30;92.00
67529;DHT22;54366;51.980;5.856;2024-02-14T12:15:46;12.30;92.10
67529;DHT22;54366;51.980;5.856;2024-02-14T12:18:14;12.30;92.10
67529;DHT22;54366;51.980;5.856;2024-02-14T12:20:42;12.30;92.20
67529;DHT22;54366;51.980;5.856;2024-02-14T12:23:16;12.30;92.10
67529;DHT22;54366;51.980;5.856;2024-02-14T12:25:46;12.40;92.20
67529;DHT22;54366;51.980;5.856;2024-02-14T12:28:16;12.40;92.20
67529;DHT22;54366;51.980;5.856;2024-02-14T12:30:48;12.40;92.20
67529;DHT22;54366;51.980;5.856;2024-02-14T12:33:16;12.40;92.10
67529;DHT22;54366;51.980;5.856;2024-02-14T12:35:45;12.40;92.20
67529;DHT22;54366;51.980;5.856;2024-02-14T12:38:14;12.40;92.10
67529;DHT22;54366;51.980;5.856;2024-02-14T12:40:41;12.40;92.10
67529;DHT22;54366;51.980;5.856;2024-02-14T12:43:11;12.40;92.10
67529;DHT22;54366;51.980;5.856;2024-02-14T12:45:38;12.40;92.20
67529;DHT22;54366;51.980;5.856;2024-02-14T12:48:06;12.40;92.20
67529;DHT22;54366;51.980;5.856;2024-02-14T12:50:35;12.40;92.20
67529;DHT22;54366;51.980;5.856;2024-02-14T12:53:02;12.40;92.20
67529;DHT22;54366;51.980;5.856;2024-02-14T12:55:28;12.40;92.10
67529;DHT22;54366;51.980;5.856;2024-02-14T12:57:55;12.40;92.10
67529;DHT22;54366;51.980;5.856;2024-02-14T13:00:22;12.40;92.10
67529;DHT22;54366;51.980;5.856;2024-02-14T13:02:49;12.40;92.10
67529;DHT22;54366;51.980;5.856;2024-02-14T13:05:16;12.40;92.10
67529;DHT22;54366;51.980;5.856;2024-02-14T13:07:43;12.40;92.10
67529;DHT22;54366;51.980;5.856;2024-02-14T13:10:10;12.40;92.40
67529;DHT22;54366;51.980;5.856;2024-02-14T13:12:37;12.40;92.10
67529;DHT22;54366;51.980;5.856;2024-02-14T13:15:05;12.50;92.10
67529;DHT22;54366;51.980;5.856;2024-02-14T13:17:32;12.40;92.10
67529;DHT22;54366;51.980;5.856;2024-02-14T13:19:58;12.50;92.10
67529;DHT22;54366;51.980;5.856;2024-02-14T13:22:26;12.50;92.10
67529;DHT22;54366;51.980;5.856;2024-02-14T13:24:52;12.40;92.10
67529;DHT22;54366;51.980;5.856;2024-02-14T13:27:19;12.40;92.10
67529;DHT22;54366;51.980;5.856;2024-02-14T13:29:48;12.50;92.20
67529;DHT22;54366;51.980;5.856;2024-02-14T13:32:14;12.50;92.20
67529;DHT22;54366;51.980;5.856;2024-02-14T13:34:40;12.50;92.20
67529;DHT22;54366;51.980;5.856;2024-02-14T13:37:07;12.50;92.20
67529;DHT22;54366;51.980;5.856;2024-02-14T13:39:35;12.50;92.20
67529;DHT22;54366;51.980;5.856;2024-02-14T13:42:02;12.50;92.20
67529;DHT22;54366;51.980;5.856;2024-02-14T13:44:28;12.50;92.20
67529;DHT22;54366;51.980;5.856;2024-02-14T13:46:55;12.50;92.20
67529;DHT22;54366;51.980;5.856;2024-02-14T13:49:22;12.50;92.20
67529;DHT22;54366;51.980;5.856;2024-02-14T13:51:52;12.50;92.20
67529;DHT22;54366;51.980;5.856;2024-02-14T13:54:21;12.50;92.20
67529;DHT22;54366;51.980;5.856;2024-02-14T13:56:50;12.50;92.20
67529;DHT22;54366;51.980;5.856;2024-02-14T13:59:16;12.50;92.20
67529;DHT22;54366;51.980;5.856;2024-02-14T14:01:45;12.50;92.20
67529;DHT22;54366;51.980;5.856;2024-02-14T14:04:12;12.50;92.20
67529;DHT22;54366;51.980;5.856;2024-02-14T14:06:38;12.50;92.20
67529;DHT22;54366;51.980;5.856;2024-02-14T14:09:05;12.50;92.30
67529;DHT22;54366;51.980;5.856;2024-02-14T14:11:34;12.50;92.30
67529;DHT22;54366;51.980;5.856;2024-02-14T14:14:00;12.50;92.30
67529;DHT22;54366;51.980;5.856;2024-02-14T14:16:27;12.50;92.40
67529;DHT22;54366;51.980;5.856;2024-02-14T14:18:53;12.50;92.40
67529;DHT22;54366;51.980;5.856;2024-02-14T14:21:19;12.50;92.40
67529;DHT22;54366;51.980;5.856;2024-02-14T14:23:46;12.60;92.40
67529;DHT22;54366;51.980;5.856;2024-02-14T14:26:13;12.60;92.40
67529;DHT22;54366;51.980;5.856;2024-02-14T14:28:39;12.60;92.40
67529;DHT22;54366;51.980;5.856;2024-02-14T14:31:06;12.60;92.40
67529;DHT22;54366;51.980;5.856;2024-02-14T14:33:32;12.60;92.40
67529;DHT22;54366;51.980;5.856;2024-02-14T14:35:58;12.60;92.40
67529;DHT22;54366;51.980;5.856;2024-02-14T14:38:25;12.70;92.40
67529;DHT22;54366;51.980;5.856;2024-02-14T14:40:52;12.60;92.40
67529;DHT22;54366;51.980;5.856;2024-02-14T14:43:21;12.60;92.40
67529;DHT22;54366;51.980;5.856;2024-02-14T14:45:47;12.70;92.40
67529;DHT22;54366;51.980;5.856;2024-02-14T14:48:15;12.60;92.40
67529;DHT22;54366;51.980;5.856;2024-02-14T14:50:42;12.70;92.40
67529;DHT22;54366;51.980;5.856;2024-02-14T14:53:09;12.70;92.50
67529;DHT22;54366;51.980;5.856;2024-02-14T14:55:54;12.70;92.40
67529;DHT22;54366;51.980;5.856;2024-02-14T14:58:23;12.70;92.40
67529;DHT22;54366;51.980;5.856;2024-02-14T15:00:56;12.80;92.40
67529;DHT22;54366;51.980;5.856;2024-02-14T15:03:23;12.70;92.40
67529;DHT22;54366;51.980;5.856;2024-02-14T15:05:50;12.80;92.40
67529;DHT22;54366;51.980;5.856;2024-02-14T15:08:16;12.80;92.40
67529;DHT22;54366;51.980;5.856;2024-02-14T15:10:44;12.80;92.40
67529;DHT22;54366;51.980;5.856;2024-02-14T15:13:10;12.80;92.40
67529;DHT22;54366;51.980;5.856;2024-02-14T15:15:39;12.80;92.40
67529;DHT22;54366;51.980;5.856;2024-02-14T15:18:06;12.80;92.40
67529;DHT22;54366;51.980;5.856;2024-02-14T15:20:32;12.80;92.40
67529;DHT22;54366;51.980;5.856;2024-02-14T15:23:02;12.80;92.40
67529;DHT22;54366;51.980;5.856;2024-02-14T15:25:29;12.80;92.40
67529;DHT22;54366;51.980;5.856;2024-02-14T15:27:55;12.90;92.40
67529;DHT22;54366;51.980;5.856;2024-02-14T15:30:25;12.80;92.40
67529;DHT22;54366;51.980;5.856;2024-02-14T15:33:10;12.80;92.40
67529;DHT22;54366;51.980;5.856;2024-02-14T15:35:53;12.90;92.40
67529;DHT22;54366;51.980;5.856;2024-02-14T15:38:21;12.90;92.40